Wetterstation:     Jahr:     Auswahl:
Download: tageswerte-erbach-2021.csv
 
 
Datum
Temp. 2 m
Mittel
[⁰C]
Temp. 2 m
Maximum
[⁰C]
Temp. 2 m
Minimum
[⁰C]
rel. Feuchte
Mittel
[%]
Wind
Mittel
[m/s]
Regen
Summe
[mm]
Strahlung
Summe
[Wh/m²]
Bogrebe
Minimum
[⁰C]
01.01.2021 2,2 3,8 0,9 92,9 0,5 0,4 494,9 0,9
02.01.2021 2,0 3,5 0,4 84,3 0,9 0,0 505,3 0,1
03.01.2021 2,1 3,0 0,9 83,2 1,9 0,1 197,4 0,3
04.01.2021 1,8 2,7 0,6 90,3 0,8 1,2 140,8 0,3
05.01.2021 2,5 3,4 1,6 86,6 0,8 0,3 260,7 1,3
06.01.2021 2,7 4,5 1,5 86,4 0,7 0,7 465,6 1,3
07.01.2021 2,1 3,5 0,9 83,8 0,7 0,2 426,9 0,5
08.01.2021 2,1 3,6 0,7 85,8 0,9 0,3 673,5 0,1
09.01.2021 1,3 4,3 -2,0 77,4 0,9 0,0 1135,2 -2,8
10.01.2021 -1,1 6,1 -4,3 84,6 0,4 0,0 1491,9 -5,2
11.01.2021 -1,2 4,8 -6,2 79,4 0,6 0,0 1397,3 -6,7
12.01.2021 2,6 4,2 1,4 89,5 1,1 5,9 312,3 0,7
13.01.2021 1,9 6,1 -1,3 83,0 1,1 0,0 973,8 -1,9
14.01.2021 2,0 3,7 -0,3 75,0 1,2 0,1 598,6 -0,6
15.01.2021 0,9 3,5 -1,9 73,1 1,1 0,0 920,8 -2,6
16.01.2021 -0,0 1,2 -2,2 70,9 0,8 0,0 607,3 -2,3
17.01.2021 -0,7 1,5 -2,3 92,4 0,3 2,1 225,9 -2,5
18.01.2021 3,3 6,3 0,8 85,8 1,0 1,6 796,1 0,5
19.01.2021 3,7 5,1 0,1 82,1 1,2 0,6 259,0 -0,6
20.01.2021 2,9 7,0 -1,4 82,8 0,9 0,0 727,6 -2,1
21.01.2021 8,4 11,5 4,2 74,9 1,4 2,4 795,0 3,9
22.01.2021 6,2 11,1 2,8 85,7 1,0 3,6 656,7 2,5
23.01.2021 3,2 5,7 0,1 91,0 0,8 1,0 352,7 -0,4
24.01.2021 1,8 3,9 -0,9 87,2 1,3 5,5 660,4 -1,4
25.01.2021 1,1 3,2 -0,2 88,2 0,8 1,2 558,1 -0,5
26.01.2021 2,5 4,9 -0,2 78,9 1,4 0,1 343,7 -0,6
27.01.2021 1,3 2,4 0,1 92,8 0,9 2,8 352,1 -0,2
28.01.2021 5,6 11,9 2,1 92,0 1,0 11,1 393,0 2,0
29.01.2021 8,6 11,6 6,8 83,4 1,5 6,2 838,2 6,6
30.01.2021 3,8 7,9 0,5 91,2 1,5 6,4 419,3 0,5
31.01.2021 1,1 1,8 0,5 84,2 2,1 1,2 521,9 0,4
01.02.2021 3,0 4,5 1,3 96,0 0,9 3,4 445,3 1,2
02.02.2021 5,7 7,4 4,5 95,4 0,4 3,7 521,6 4,2
03.02.2021 8,2 11,8 4,9 95,9 0,9 21,2 501,2 4,1
04.02.2021 7,7 12,4 3,5 78,3 0,8 0,0 1711,0 2,6
05.02.2021 6,1 7,5 4,2 92,7 0,4 4,5 561,0 3,6
06.02.2021 5,6 7,0 3,5 93,7 2,0 10,5 150,5 3,5
07.02.2021 2,5 3,6 -0,2 93,7 1,9 5,0 210,9 -0,3
08.02.2021 -2,9 -0,3 -5,0 84,3 1,4 0,0 658,4 -5,1
09.02.2021 -5,9 -3,9 -8,7 69,8 1,5 0,0 1137,1 -8,8
10.02.2021 -6,5 -2,9 -9,7 68,5 1,7 0,0 2266,2 -9,8
11.02.2021 -2,7 1,8 -6,3 71,9 0,8 0,0 2286,9 -6,9
12.02.2021 -4,2 -0,5 -7,1 65,5 2,4 0,0 2513,4 -7,5
13.02.2021 -3,9 1,0 -7,2 61,4 2,2 0,0 2762,8 -7,4
14.02.2021 -2,2 4,0 -7,1 61,9 1,8 0,0 2788,0 -7,9
15.02.2021 -1,2 0,5 -4,5 72,0 0,8 1,2 684,9 -5,2
16.02.2021 3,7 9,4 0,4 87,2 0,6 1,5 1799,9 0,2
17.02.2021 6,2 13,2 1,2 86,7 0,7 0,0 1537,1 0,7
18.02.2021 3,5 8,4 -0,8 90,2 0,6 0,1 1320,0 -1,0
19.02.2021 5,7 11,9 -0,4 83,8 0,5 0,0 2530,5 -1,0
20.02.2021 7,5 17,1 1,1 83,3 0,6 0,0 2694,0 0,5
21.02.2021 7,1 17,9 -0,1 79,8 0,5 0,0 3030,7 -0,7
22.02.2021 6,0 12,2 0,4 84,2 0,6 0,0 2230,7 -0,3
23.02.2021 9,9 18,3 3,8 79,9 0,5 0,1 2777,2 3,3
24.02.2021 9,8 19,3 2,9 83,0 0,4 0,0 2842,3 2,3
25.02.2021 9,3 20,5 2,4 75,1 0,4 0,0 3125,1 1,8
26.02.2021 5,8 9,7 2,2 86,0 0,9 0,3 474,7 1,5
27.02.2021 5,5 11,5 0,6 76,4 1,0 0,0 3371,8 -0,1
28.02.2021 5,8 11,2 0,6 68,1 1,5 0,0 3639,5 -0,3
01.03.2021 --- --- --- --- --- --- --- ---